createdAt,value
2022-08-23T00:01:26.243Z,22.10
2022-08-23T00:03:58.105Z,22.10
2022-08-23T00:06:25.114Z,22.10
2022-08-23T00:08:52.965Z,22.20
2022-08-23T00:11:45.176Z,22.10
2022-08-23T00:14:22.724Z,22.10
2022-08-23T00:16:49.687Z,22.10
2022-08-23T00:19:18.277Z,22.20
2022-08-23T00:21:46.416Z,22.10
2022-08-23T00:24:14.874Z,22.10
2022-08-23T00:26:59.223Z,22.10
2022-08-23T00:29:31.142Z,22.10
2022-08-23T00:31:58.447Z,22.20
2022-08-23T00:34:25.297Z,22.00
2022-08-23T00:36:52.111Z,22.00
2022-08-23T00:39:19.325Z,22.10
2022-08-23T00:41:48.542Z,22.20
2022-08-23T00:44:44.206Z,22.10
2022-08-23T00:47:32.547Z,22.20
2022-08-23T00:50:19.994Z,22.20
2022-08-23T00:53:06.749Z,22.10
2022-08-23T00:55:34.798Z,22.10
2022-08-23T00:58:02.287Z,22.10
2022-08-23T01:00:29.936Z,22.10
2022-08-23T01:02:57.694Z,22.10
2022-08-23T01:05:33.047Z,22.10
2022-08-23T01:08:00.844Z,22.10
2022-08-23T01:10:42.159Z,22.00
2022-08-23T01:13:19.472Z,22.00
2022-08-23T01:15:52.984Z,22.00
2022-08-23T01:18:23.678Z,22.00
2022-08-23T01:21:14.739Z,22.00
2022-08-23T01:23:46.062Z,21.90
2022-08-23T01:26:15.326Z,22.00
2022-08-23T01:28:48.812Z,22.00
2022-08-23T01:31:16.882Z,22.00
2022-08-23T01:33:46.961Z,22.00
2022-08-23T01:36:17.578Z,22.10
2022-08-23T01:38:44.224Z,22.00
2022-08-23T01:41:11.099Z,21.90
2022-08-23T01:43:37.817Z,21.80
2022-08-23T01:46:10.651Z,21.80
2022-08-23T01:48:37.523Z,21.80
2022-08-23T01:51:04.812Z,21.90
2022-08-23T01:53:31.942Z,21.90
2022-08-23T01:56:01.584Z,21.80
2022-08-23T01:58:30.894Z,21.80
2022-08-23T02:00:57.839Z,21.80
2022-08-23T02:03:24.854Z,21.80
2022-08-23T02:08:41.994Z,21.30
2022-08-23T02:11:16.057Z,21.70
2022-08-23T02:13:44.405Z,21.70
2022-08-23T02:16:14.922Z,21.70
2022-08-23T02:18:41.765Z,21.60
2022-08-23T02:21:10.335Z,21.60
2022-08-23T02:23:37.158Z,21.60
2022-08-23T02:26:04.207Z,21.60
2022-08-23T02:28:30.905Z,21.50
2022-08-23T02:30:57.670Z,21.60
2022-08-23T02:33:24.801Z,21.60
2022-08-23T02:35:51.498Z,21.60
2022-08-23T02:38:18.538Z,21.60
2022-08-23T02:40:45.297Z,21.60
2022-08-23T02:43:12.285Z,21.60
2022-08-23T02:45:39.280Z,21.60
2022-08-23T02:48:08.125Z,21.70
2022-08-23T02:50:35.986Z,21.60
2022-08-23T02:53:02.712Z,21.60
2022-08-23T02:55:29.415Z,21.50
2022-08-23T02:57:56.157Z,21.50
2022-08-23T03:00:23.158Z,21.40
2022-08-23T03:02:49.854Z,21.50
2022-08-23T03:05:16.858Z,21.40
2022-08-23T03:07:44.237Z,21.50
2022-08-23T03:10:12.022Z,21.50
2022-08-23T03:12:40.011Z,21.40
2022-08-23T03:15:08.204Z,21.40
2022-08-23T03:17:35.125Z,21.40
2022-08-23T03:20:01.889Z,22.50
2022-08-23T03:22:28.657Z,21.40
2022-08-23T03:24:55.407Z,21.40
2022-08-23T03:27:22.102Z,21.40
2022-08-23T03:29:48.841Z,21.40
2022-08-23T03:32:15.958Z,21.40
2022-08-23T03:34:42.781Z,21.60
2022-08-23T03:37:09.742Z,21.50
2022-08-23T03:39:36.711Z,21.50
2022-08-23T03:42:03.948Z,21.40
2022-08-23T03:44:30.782Z,21.40
2022-08-23T03:46:57.422Z,21.40
2022-08-23T03:49:24.183Z,21.40
2022-08-23T03:51:50.843Z,21.30
2022-08-23T03:54:17.494Z,21.30
2022-08-23T03:56:56.317Z,21.20
2022-08-23T03:59:22.965Z,21.20
2022-08-23T04:01:49.948Z,21.20
2022-08-23T04:04:17.329Z,21.20
2022-08-23T04:06:45.219Z,21.20
2022-08-23T04:09:13.326Z,21.20
2022-08-23T04:11:40.368Z,21.30
2022-08-23T04:14:07.535Z,21.20
2022-08-23T04:16:37.674Z,21.20
2022-08-23T04:19:05.328Z,22.30
2022-08-23T04:21:37.854Z,21.20
2022-08-23T04:24:05.011Z,21.20
2022-08-23T04:26:31.688Z,21.30
2022-08-23T04:28:58.940Z,21.10
2022-08-23T04:31:29.271Z,21.20
2022-08-23T04:34:01.931Z,21.20
2022-08-23T04:36:36.947Z,21.20
2022-08-23T04:39:04.506Z,21.20
2022-08-23T04:41:49.940Z,21.30
2022-08-23T04:44:16.917Z,21.30
2022-08-23T04:46:43.988Z,21.20
2022-08-23T04:49:11.756Z,21.20
2022-08-23T04:51:39.247Z,21.20
2022-08-23T04:54:06.041Z,21.20
2022-08-23T04:56:32.682Z,21.20
2022-08-23T04:58:59.474Z,21.20
2022-08-23T05:01:26.240Z,21.20
2022-08-23T05:03:54.511Z,21.10
2022-08-23T05:06:22.153Z,21.20
2022-08-23T05:08:49.008Z,21.10
2022-08-23T05:11:18.956Z,21.00
2022-08-23T05:13:45.621Z,21.10
2022-08-23T05:16:12.804Z,21.20
2022-08-23T05:18:39.667Z,21.20
2022-08-23T05:21:06.607Z,21.20
2022-08-23T05:23:33.834Z,21.20
2022-08-23T05:26:01.916Z,22.20
2022-08-23T05:28:32.069Z,21.20
2022-08-23T05:31:11.498Z,21.10
2022-08-23T05:33:40.543Z,21.10
2022-08-23T05:36:08.726Z,21.20
2022-08-23T05:38:35.474Z,21.20
2022-08-23T05:41:02.344Z,21.20
2022-08-23T05:43:32.562Z,21.30
2022-08-23T05:46:06.572Z,21.30
2022-08-23T05:48:40.468Z,21.40
2022-08-23T05:51:12.881Z,21.60
2022-08-23T05:53:40.755Z,21.60
2022-08-23T05:56:18.223Z,21.60
2022-08-23T05:58:45.470Z,21.60
2022-08-23T06:01:14.100Z,21.70
2022-08-23T06:03:41.747Z,21.80
2022-08-23T06:06:09.353Z,21.60
2022-08-23T06:08:38.851Z,21.60
2022-08-23T06:11:18.251Z,21.60
2022-08-23T06:14:06.241Z,21.60
2022-08-23T06:16:42.259Z,21.60
2022-08-23T06:19:09.975Z,21.60
2022-08-23T06:21:38.565Z,21.70
2022-08-23T06:24:07.057Z,21.70
2022-08-23T06:26:38.174Z,21.80
2022-08-23T06:29:08.057Z,21.80
2022-08-23T06:31:48.641Z,21.90
2022-08-23T06:34:22.455Z,22.00
2022-08-23T06:36:55.134Z,22.10
2022-08-23T06:39:23.771Z,22.10
2022-08-23T06:41:51.415Z,22.10
2022-08-23T06:44:19.448Z,22.10
2022-08-23T06:46:48.831Z,22.10
2022-08-23T06:49:16.353Z,22.10
2022-08-23T06:51:50.380Z,22.20
2022-08-23T06:54:22.399Z,22.00
2022-08-23T06:56:50.107Z,22.30
2022-08-23T06:59:18.711Z,22.30
2022-08-23T07:01:47.376Z,22.30
2022-08-23T07:04:17.451Z,22.20
2022-08-23T07:06:44.153Z,22.30
2022-08-23T07:09:11.087Z,22.40
2022-08-23T07:11:39.413Z,22.50
2022-08-23T07:14:14.951Z,22.50
2022-08-23T07:16:48.368Z,22.50
2022-08-23T07:19:16.930Z,22.50
2022-08-23T07:21:43.926Z,22.60
2022-08-23T07:24:15.555Z,22.60
2022-08-23T07:26:45.336Z,22.60
2022-08-23T07:29:13.689Z,22.70
2022-08-23T07:31:44.293Z,22.70
2022-08-23T07:34:11.080Z,22.70
2022-08-23T07:36:40.047Z,22.80
2022-08-23T07:39:08.123Z,22.70
2022-08-23T07:41:35.723Z,22.70
2022-08-23T07:44:05.867Z,22.70
2022-08-23T07:46:33.247Z,22.80
2022-08-23T07:49:01.401Z,22.80
2022-08-23T07:51:30.711Z,23.00
2022-08-23T07:53:58.201Z,23.00
2022-08-23T07:56:25.047Z,23.10
2022-08-23T07:58:51.981Z,23.20
2022-08-23T08:01:22.256Z,23.20
2022-08-23T08:03:55.200Z,23.30
2022-08-23T08:06:24.557Z,23.40
2022-08-23T08:08:52.103Z,23.50
2022-08-23T08:11:22.200Z,23.50
2022-08-23T08:13:50.414Z,23.50
2022-08-23T08:16:32.765Z,23.50
2022-08-23T08:19:01.600Z,23.70
2022-08-23T08:21:29.123Z,23.70
2022-08-23T08:23:57.537Z,23.70
2022-08-23T08:26:25.120Z,23.80
2022-08-23T08:28:52.442Z,23.80
2022-08-23T08:31:19.165Z,23.90
2022-08-23T08:33:45.876Z,23.90
2022-08-23T08:36:31.364Z,23.90
2022-08-23T08:39:00.727Z,23.90
2022-08-23T08:41:48.696Z,24.10
2022-08-23T08:44:46.831Z,24.20
2022-08-23T08:47:47.629Z,24.30
2022-08-23T08:50:27.637Z,24.40
2022-08-23T08:53:01.702Z,24.40
2022-08-23T08:55:38.740Z,24.50
2022-08-23T08:58:07.143Z,24.60
2022-08-23T09:00:38.973Z,24.60
2022-08-23T09:03:12.207Z,24.60
2022-08-23T09:05:45.682Z,24.60
2022-08-23T09:08:40.019Z,24.60
2022-08-23T09:11:06.662Z,24.70
2022-08-23T09:13:53.377Z,24.80
2022-08-23T09:16:35.122Z,24.80
2022-08-23T09:19:02.631Z,24.80
2022-08-23T09:21:37.677Z,24.90
2022-08-23T09:24:04.928Z,25.00
2022-08-23T09:26:31.733Z,25.10
2022-08-23T09:29:27.625Z,25.10
2022-08-23T09:32:02.539Z,25.10
2022-08-23T09:34:37.681Z,25.20
2022-08-23T09:37:13.399Z,25.20
2022-08-23T09:39:43.935Z,25.40
2022-08-23T09:42:37.938Z,25.50
2022-08-23T09:45:24.567Z,25.60
2022-08-23T09:47:51.305Z,25.70
2022-08-23T09:50:36.361Z,25.80
2022-08-23T09:53:08.251Z,25.80
2022-08-23T09:55:54.133Z,25.90
2022-08-23T09:58:28.498Z,25.80
2022-08-23T10:01:06.613Z,25.70
2022-08-23T10:03:33.366Z,25.80
2022-08-23T10:06:01.933Z,25.80
2022-08-23T10:08:33.112Z,25.80
2022-08-23T10:11:17.288Z,25.90
2022-08-23T10:13:44.633Z,26.00
2022-08-23T10:16:30.445Z,26.00
2022-08-23T10:19:02.789Z,26.10
2022-08-23T10:21:46.137Z,26.10
2022-08-23T10:24:19.860Z,26.20
2022-08-23T10:27:35.973Z,26.30
2022-08-23T10:30:07.514Z,26.40
2022-08-23T10:32:52.229Z,26.30
2022-08-23T10:35:32.107Z,26.30
2022-08-23T10:38:23.987Z,26.40
2022-08-23T10:41:07.044Z,26.50
2022-08-23T10:43:36.912Z,26.60
2022-08-23T10:46:07.393Z,26.60
2022-08-23T10:48:54.115Z,26.60
2022-08-23T10:51:35.050Z,26.70
2022-08-23T10:54:13.258Z,26.70
2022-08-23T10:56:44.431Z,26.80
2022-08-23T10:59:26.358Z,26.90
2022-08-23T11:02:21.893Z,27.00
2022-08-23T11:04:54.031Z,27.00
2022-08-23T11:07:28.283Z,26.90
2022-08-23T11:10:26.841Z,26.90
2022-08-23T11:13:11.408Z,26.90
2022-08-23T11:15:58.410Z,27.00
2022-08-23T11:18:33.891Z,27.00
2022-08-23T11:21:06.256Z,27.10
2022-08-23T11:23:45.814Z,27.10
2022-08-23T11:26:27.693Z,27.10
2022-08-23T11:29:07.772Z,27.10
2022-08-23T11:31:48.893Z,26.50
2022-08-23T11:34:25.835Z,27.30
2022-08-23T11:37:22.062Z,27.30
2022-08-23T11:39:57.782Z,27.50
2022-08-23T11:42:47.658Z,27.50
2022-08-23T11:45:47.379Z,27.50
2022-08-23T11:48:24.312Z,28.70
2022-08-23T11:50:55.897Z,27.50
2022-08-23T11:53:53.347Z,27.50
2022-08-23T11:56:19.934Z,27.50
2022-08-23T11:59:08.993Z,27.40
2022-08-23T12:01:39.229Z,27.50
2022-08-23T12:04:11.806Z,27.50
2022-08-23T12:06:50.679Z,27.50
2022-08-23T12:09:21.042Z,27.40
2022-08-23T12:11:56.526Z,27.40
2022-08-23T12:14:32.295Z,27.40
2022-08-23T12:17:00.725Z,27.40
2022-08-23T12:19:40.295Z,27.30
2022-08-23T12:22:17.166Z,27.30
2022-08-23T12:24:52.473Z,27.40
2022-08-23T12:27:42.239Z,27.50
2022-08-23T12:30:42.787Z,27.60
2022-08-23T12:33:32.810Z,27.70
2022-08-23T12:36:13.653Z,27.80
2022-08-23T12:39:04.859Z,27.90
2022-08-23T12:41:48.860Z,28.10
2022-08-23T12:44:19.838Z,28.10
2022-08-23T12:46:48.559Z,28.20
2022-08-23T12:49:29.356Z,28.20
2022-08-23T12:51:59.436Z,28.20
2022-08-23T12:54:39.670Z,28.20
2022-08-23T12:57:11.896Z,28.20
2022-08-23T13:00:17.599Z,28.20
2022-08-23T13:03:09.877Z,28.20
2022-08-23T13:05:43.935Z,28.30
2022-08-23T13:08:34.306Z,28.40
2022-08-23T13:11:07.318Z,28.20
2022-08-23T13:13:38.024Z,28.20
2022-08-23T13:16:27.375Z,28.10
2022-08-23T13:18:56.248Z,28.20
2022-08-23T13:21:22.981Z,28.30
2022-08-23T13:23:58.457Z,28.40
2022-08-23T13:26:38.397Z,28.40
2022-08-23T13:29:04.995Z,28.40
2022-08-23T13:32:05.811Z,28.40
2022-08-23T13:34:48.697Z,28.50
2022-08-23T13:37:18.917Z,28.60
2022-08-23T13:39:56.022Z,28.40
2022-08-23T13:42:35.952Z,28.50
2022-08-23T13:45:14.362Z,28.60
2022-08-23T13:47:47.820Z,28.70
2022-08-23T13:50:34.953Z,28.80
2022-08-23T13:53:14.378Z,28.70
2022-08-23T13:55:52.275Z,28.70
2022-08-23T13:58:33.659Z,28.80
2022-08-23T14:01:02.796Z,28.80
2022-08-23T14:03:33.749Z,29.00
2022-08-23T14:06:00.463Z,29.20
2022-08-23T14:08:27.179Z,30.30
2022-08-23T14:10:53.965Z,29.40
2022-08-23T14:13:24.564Z,29.50
2022-08-23T14:15:56.050Z,29.60
2022-08-23T14:18:23.489Z,29.70
2022-08-23T14:20:51.408Z,29.90
2022-08-23T14:23:18.884Z,30.20
2022-08-23T14:25:47.236Z,30.40
2022-08-23T14:28:13.933Z,30.60
2022-08-23T14:30:40.802Z,30.80
2022-08-23T14:33:07.918Z,30.90
2022-08-23T14:35:34.728Z,31.00
2022-08-23T14:38:04.062Z,31.00
2022-08-23T14:40:31.510Z,31.10
2022-08-23T14:42:58.721Z,31.10
2022-08-23T14:45:25.983Z,30.90
2022-08-23T14:47:52.657Z,31.10
2022-08-23T14:50:19.349Z,31.40
2022-08-23T14:52:47.341Z,31.40
2022-08-23T14:55:15.531Z,31.30
2022-08-23T14:57:42.213Z,31.50
2022-08-23T15:00:13.715Z,31.70
2022-08-23T15:02:44.711Z,31.70
2022-08-23T15:05:13.452Z,31.70
2022-08-23T15:07:40.108Z,31.50
2022-08-23T15:10:09.860Z,31.30
2022-08-23T15:15:23.609Z,31.00
2022-08-23T15:17:58.608Z,30.90
2022-08-23T15:20:30.093Z,30.70
2022-08-23T15:22:57.044Z,30.50
2022-08-23T15:25:25.380Z,30.30
2022-08-23T15:27:52.545Z,30.10
2022-08-23T15:30:19.364Z,29.70
2022-08-23T15:32:52.255Z,29.60
2022-08-23T15:35:21.969Z,29.40
2022-08-23T15:37:49.400Z,29.50
2022-08-23T15:40:16.250Z,29.30
2022-08-23T15:42:43.016Z,29.30
2022-08-23T15:45:10.274Z,29.30
2022-08-23T15:47:49.908Z,29.20
2022-08-23T15:50:24.855Z,29.30
2022-08-23T15:52:51.863Z,29.80
2022-08-23T15:55:19.042Z,29.80
2022-08-23T15:57:51.338Z,30.30
2022-08-23T16:00:21.226Z,30.80
2022-08-23T16:03:14.424Z,31.10
2022-08-23T16:05:37.205Z,32.90
2022-08-23T16:08:05.602Z,35.30
2022-08-23T16:10:32.725Z,36.30
2022-08-23T16:12:59.531Z,37.30
2022-08-23T16:15:26.276Z,37.90
2022-08-23T16:17:52.912Z,37.90
2022-08-23T16:20:20.210Z,35.80
2022-08-23T16:22:46.862Z,34.00
2022-08-23T16:25:13.515Z,32.70
2022-08-23T16:27:40.149Z,31.50
2022-08-23T16:30:08.116Z,30.70
2022-08-23T16:32:39.937Z,30.00
2022-08-23T16:35:07.618Z,29.60
2022-08-23T16:37:36.054Z,29.30
2022-08-23T16:40:05.094Z,29.10
2022-08-23T16:42:31.781Z,29.00
2022-08-23T16:44:58.476Z,28.80
2022-08-23T16:47:25.286Z,28.70
2022-08-23T16:49:51.994Z,28.60
2022-08-23T16:52:18.691Z,28.50
2022-08-23T16:54:47.476Z,28.50
2022-08-23T16:57:17.581Z,28.40
2022-08-23T16:59:46.902Z,28.40
2022-08-23T17:02:27.786Z,28.30
2022-08-23T17:04:56.259Z,28.20
2022-08-23T17:07:23.419Z,28.20
2022-08-23T17:09:50.164Z,28.20
2022-08-23T17:12:17.749Z,28.10
2022-08-23T17:14:45.611Z,28.00
2022-08-23T17:17:13.147Z,28.00
2022-08-23T17:19:40.453Z,27.90
2022-08-23T17:22:07.195Z,27.70
2022-08-23T17:24:34.015Z,27.80
2022-08-23T17:27:00.954Z,27.80
2022-08-23T17:29:27.644Z,27.80
2022-08-23T17:31:57.693Z,27.80
2022-08-23T17:34:24.419Z,27.70
2022-08-23T17:36:54.831Z,27.70
2022-08-23T17:39:27.325Z,27.60
2022-08-23T17:41:54.013Z,27.60
2022-08-23T17:44:20.702Z,27.60
2022-08-23T17:46:48.426Z,27.50
2022-08-23T17:49:16.671Z,27.50
2022-08-23T17:51:44.183Z,27.40
2022-08-23T17:54:16.381Z,27.40
2022-08-23T17:56:50.650Z,27.30
2022-08-23T17:59:18.968Z,27.30
2022-08-23T18:01:45.716Z,27.30
2022-08-23T18:04:12.672Z,27.30
2022-08-23T18:06:39.441Z,27.20
2022-08-23T18:09:07.360Z,27.20
2022-08-23T18:11:34.913Z,27.10
2022-08-23T18:14:01.605Z,27.00
2022-08-23T18:16:34.486Z,27.00
2022-08-23T18:19:03.296Z,27.10
2022-08-23T18:21:30.821Z,27.00
2022-08-23T18:23:58.856Z,26.90
2022-08-23T18:26:44.943Z,26.90
2022-08-23T18:29:14.454Z,26.80
2022-08-23T18:31:43.200Z,26.70
2022-08-23T18:34:11.650Z,26.60
2022-08-23T18:36:38.411Z,25.20
2022-08-23T18:39:06.842Z,26.50
2022-08-23T18:41:33.822Z,26.50
2022-08-23T18:44:05.323Z,26.40
2022-08-23T18:46:34.316Z,26.40
2022-08-23T18:49:01.065Z,25.20
2022-08-23T18:51:28.108Z,26.20
2022-08-23T18:53:54.839Z,26.20
2022-08-23T18:56:21.633Z,26.10
2022-08-23T18:58:48.686Z,26.00
2022-08-23T19:01:24.419Z,26.00
2022-08-23T19:03:52.117Z,25.90
2022-08-23T19:06:18.889Z,25.90
2022-08-23T19:08:46.281Z,25.80
2022-08-23T19:11:13.406Z,25.80
2022-08-23T19:13:40.217Z,25.70
2022-08-23T19:16:13.124Z,25.70
2022-08-23T19:18:40.843Z,25.70
2022-08-23T19:21:07.563Z,25.50
2022-08-23T19:23:35.299Z,25.60
2022-08-23T19:26:02.111Z,25.50
2022-08-23T19:28:28.788Z,25.60
2022-08-23T19:30:55.480Z,25.60
2022-08-23T19:33:22.198Z,25.50
2022-08-23T19:35:49.189Z,25.50
2022-08-23T19:38:17.970Z,25.50
2022-08-23T19:40:44.782Z,25.40
2022-08-23T19:43:11.502Z,25.40
2022-08-23T19:45:39.091Z,25.40
2022-08-23T19:48:06.183Z,25.30
2022-08-23T19:50:33.318Z,25.30
2022-08-23T19:53:00.051Z,25.30
2022-08-23T19:55:27.546Z,25.30
2022-08-23T19:57:55.295Z,25.20
2022-08-23T20:00:23.128Z,25.20
2022-08-23T20:02:49.809Z,25.20
2022-08-23T20:05:17.754Z,25.20
2022-08-23T20:07:44.544Z,25.20
2022-08-23T20:10:13.449Z,25.10
2022-08-23T20:12:41.779Z,25.00
2022-08-23T20:15:12.299Z,25.10
2022-08-23T20:17:39.936Z,25.00
2022-08-23T20:20:09.497Z,25.00
2022-08-23T20:23:11.333Z,25.00
2022-08-23T20:25:37.982Z,24.90
2022-08-23T20:28:07.599Z,24.90
2022-08-23T20:30:35.627Z,24.90
2022-08-23T20:33:02.454Z,24.80
2022-08-23T20:35:29.380Z,24.80
2022-08-23T20:37:56.115Z,24.80
2022-08-23T20:40:25.763Z,24.80
2022-08-23T20:42:52.527Z,24.70
2022-08-23T20:45:20.071Z,24.80
2022-08-23T20:47:46.810Z,24.70
2022-08-23T20:50:13.506Z,24.70
2022-08-23T20:52:40.250Z,24.70
2022-08-23T20:55:10.533Z,24.60
2022-08-23T20:57:38.519Z,24.50
2022-08-23T21:00:07.074Z,24.50
2022-08-23T21:02:33.772Z,24.50
2022-08-23T21:05:00.950Z,24.50
2022-08-23T21:07:27.985Z,24.50
2022-08-23T21:09:54.850Z,24.50
2022-08-23T21:12:21.505Z,24.40
2022-08-23T21:14:48.206Z,24.40
2022-08-23T21:17:14.839Z,24.40
2022-08-23T21:19:44.072Z,24.40
2022-08-23T21:22:10.954Z,24.30
2022-08-23T21:24:38.453Z,24.20
2022-08-23T21:27:08.810Z,24.20
2022-08-23T21:29:36.195Z,24.10
2022-08-23T21:32:03.141Z,24.10
2022-08-23T21:34:29.871Z,23.40
2022-08-23T21:36:56.579Z,24.10
2022-08-23T21:39:23.250Z,24.00
2022-08-23T21:41:50.935Z,24.00
2022-08-23T21:44:19.810Z,24.00
2022-08-23T21:46:48.025Z,24.00
2022-08-23T21:49:16.133Z,24.00
2022-08-23T21:51:43.627Z,23.90
2022-08-23T21:54:12.255Z,23.90
2022-08-23T21:56:39.709Z,24.00
2022-08-23T21:59:09.468Z,23.80
2022-08-23T22:01:36.367Z,23.80
2022-08-23T22:04:06.023Z,23.80
2022-08-23T22:06:33.467Z,23.70
2022-08-23T22:09:00.758Z,23.60
2022-08-23T22:11:29.031Z,23.60
2022-08-23T22:13:56.328Z,23.60
2022-08-23T22:16:23.048Z,23.60
2022-08-23T22:18:49.834Z,23.60
2022-08-23T22:21:16.504Z,23.50
2022-08-23T22:23:44.532Z,23.50
2022-08-23T22:26:13.725Z,23.50
2022-08-23T22:28:44.343Z,23.40
2022-08-23T22:31:13.597Z,23.40
2022-08-23T22:33:41.173Z,23.40
2022-08-23T22:36:17.120Z,23.40
2022-08-23T22:38:44.778Z,23.40
2022-08-23T22:41:16.174Z,23.30
2022-08-23T22:43:42.979Z,23.30
2022-08-23T22:46:09.998Z,23.20
2022-08-23T22:48:36.725Z,23.20
2022-08-23T22:51:25.134Z,23.10
2022-08-23T22:53:56.094Z,23.10
2022-08-23T22:56:31.210Z,23.10
2022-08-23T22:58:58.791Z,23.10
2022-08-23T23:01:34.951Z,23.00
2022-08-23T23:04:02.751Z,23.00
2022-08-23T23:06:30.522Z,23.00
2022-08-23T23:08:57.221Z,22.90
2022-08-23T23:11:24.253Z,22.80
2022-08-23T23:13:51.351Z,22.90
2022-08-23T23:16:22.128Z,22.90
2022-08-23T23:19:08.280Z,22.80
2022-08-23T23:21:37.589Z,21.90
2022-08-23T23:24:05.196Z,22.80
2022-08-23T23:26:32.081Z,22.90
2022-08-23T23:28:58.755Z,22.70
2022-08-23T23:31:25.691Z,22.80
2022-08-23T23:33:52.490Z,22.70
2022-08-23T23:36:19.393Z,22.80
2022-08-23T23:38:46.486Z,22.80
2022-08-23T23:41:13.363Z,22.70
2022-08-23T23:43:40.606Z,22.70
2022-08-23T23:46:10.905Z,22.70
2022-08-23T23:48:39.511Z,22.70
2022-08-23T23:51:08.421Z,22.60
2022-08-23T23:53:36.502Z,22.50
2022-08-23T23:56:06.359Z,22.50
2022-08-23T23:58:34.494Z,22.50
